Time;durP1;ratioP1;P1;durP2;ratioP2;P2;SDS_P1;SDS_P2;PMS_P1;PMS_P2;Temp;Humidity;BMP_temperature;BMP_pressure;BME280_temperature;BME280_humidity;BME280_pressure;Samples;Min_cycle;Max_cycle;Signal;HPM_P1;HPM_P2
2022/03/04 00:01:46;;;;;;;;;47.40;36.00;;;;;8.40;38.00;98856.56;6242582;27;97069;-65
2022/03/04 00:04:50;;;;;;;;;47.60;35.40;;;;;8.38;37.99;98861.31;6242562;27;96709;-64
2022/03/04 00:07:53;;;;;;;;;48.25;39.00;;;;;8.32;38.22;98854.91;6240249;27;96636;-65
2022/03/04 00:10:59;;;;;;;;;44.00;36.00;;;;;8.38;37.79;98862.13;6257993;27;97336;-64
2022/03/04 00:14:09;;;;;;;;;49.00;38.60;;;;;8.28;37.47;98851.78;6258373;27;97400;-63
2022/03/04 00:17:12;;;;;;;;;47.50;36.00;;;;;8.35;37.83;98851.81;6258345;27;97191;-63
2022/03/04 00:20:16;;;;;;;;;49.00;37.00;;;;;8.35;37.77;98859.06;6258811;27;97101;-64
2022/03/04 00:23:20;;;;;;;;;44.60;36.00;;;;;8.39;37.64;98850.38;6260088;27;96413;-64
2022/03/04 00:26:23;;;;;;;;;47.00;36.00;;;;;8.38;37.62;98847.88;6241255;27;100158;-65
2022/03/04 00:29:28;;;;;;;;;46.25;38.00;;;;;8.26;37.69;98844.97;6264623;27;96506;-63
2022/03/04 00:32:32;;;;;;;;;47.00;36.00;;;;;8.25;37.88;98844.16;6265183;27;96956;-64
2022/03/04 00:35:36;;;;;;;;;42.75;34.00;;;;;8.21;37.90;98845.59;6264644;27;97481;-63
2022/03/04 00:38:39;;;;;;;;;45.25;36.75;;;;;8.23;37.74;98842.69;6246584;27;96863;-64
2022/03/04 00:41:43;;;;;;;;;47.80;36.40;;;;;8.20;37.88;98848.50;6245431;27;99457;-62
2022/03/04 00:44:48;;;;;;;;;45.00;36.00;;;;;8.18;37.82;98842.50;6264700;27;96838;-63
2022/03/04 00:47:51;;;;;;;;;47.80;36.60;;;;;8.22;37.71;98833.81;6264344;27;96683;-64
2022/03/04 00:50:54;;;;;;;;;47.00;35.50;;;;;8.23;37.69;98842.69;6246124;27;99580;-64
2022/03/04 00:53:57;;;;;;;;;44.40;35.00;;;;;8.18;37.56;98839.81;6264905;27;97401;-62
2022/03/04 00:57:01;;;;;;;;;45.00;35.00;;;;;8.21;37.80;98839.38;6264802;27;97018;-63
2022/03/04 01:00:07;;;;;;;;;42.80;34.00;;;;;8.22;37.45;98839.19;6263134;27;98039;-63
2022/03/04 01:03:11;;;;;;;;;45.00;34.00;;;;;8.22;37.41;98843.72;6229071;27;99197;-64
2022/03/04 01:06:14;;;;;;;;;42.50;33.50;;;;;8.23;37.25;98848.06;6264240;27;97274;-63
2022/03/04 01:09:18;;;;;;;;;42.00;31.75;;;;;8.24;37.27;98839.81;6246227;27;96530;-62
2022/03/04 01:12:21;;;;;;;;;37.80;32.00;;;;;8.27;37.28;98843.94;6264460;27;96850;-63
2022/03/04 01:15:26;;;;;;;;;30.60;28.20;;;;;8.30;36.82;98840.88;6264536;27;97459;-62
2022/03/04 01:18:29;;;;;;;;;38.20;32.00;;;;;8.31;36.89;98834.44;6263069;27;96799;-64
2022/03/04 01:21:34;;;;;;;;;42.00;32.40;;;;;8.29;36.77;98836.50;6261971;27;96554;-63
2022/03/04 01:24:37;;;;;;;;;40.40;32.00;;;;;8.23;37.00;98823.91;6264124;27;97494;-62
2022/03/04 01:27:41;;;;;;;;;37.60;31.80;;;;;8.26;36.79;98818.09;6212344;28;97649;-63
2022/03/04 01:30:47;;;;;;;;;35.80;31.00;;;;;8.19;36.77;98823.50;6213418;28;97334;-62
2022/03/04 01:33:50;;;;;;;;;36.40;32.00;;;;;8.19;36.86;98825.34;6213856;28;96817;-62
2022/03/04 01:36:54;;;;;;;;;38.60;32.00;;;;;8.20;37.00;98824.31;6212511;28;97658;-62
2022/03/04 01:39:57;;;;;;;;;38.75;29.50;;;;;8.18;36.87;98821.84;6211153;28;96889;-63
2022/03/04 01:43:00;;;;;;;;;35.40;29.80;;;;;8.20;36.79;98816.28;6209538;28;96521;-62
2022/03/04 01:46:14;;;;;;;;;27.00;26.00;;;;;8.16;36.86;98823.88;6211283;28;97217;-62
2022/03/04 01:49:17;;;;;;;;;28.00;24.00;;;;;8.08;36.67;98815.22;6226735;28;97475;-63
2022/03/04 01:52:21;;;;;;;;;33.00;27.00;;;;;8.11;36.73;98821.00;6210981;28;97370;-63
2022/03/04 01:55:24;;;;;;;;;33.80;26.80;;;;;8.07;36.77;98811.72;6212587;28;96794;-63
2022/03/04 01:58:28;;;;;;;;;36.00;30.60;;;;;8.09;36.84;98816.88;6213370;28;96958;-63
2022/03/04 02:01:35;;;;;;;;;38.00;32.00;;;;;8.10;36.67;98814.00;6212257;28;97384;-63
2022/03/04 02:04:38;;;;;;;;;33.00;29.00;;;;;8.01;36.73;98801.00;6211776;28;98331;-64
2022/03/04 02:07:41;;;;;;;;;33.00;28.00;;;;;8.10;36.66;98813.19;6228348;28;96623;-64
2022/03/04 02:10:45;;;;;;;;;30.40;27.00;;;;;8.07;36.92;98819.78;6212036;28;96916;-65
2022/03/04 02:13:48;;;;;;;;;32.67;27.00;;;;;8.08;37.01;98816.06;6212891;28;97398;-63
2022/03/04 02:16:54;;;;;;;;;32.00;27.00;;;;;7.94;36.89;98784.06;6211935;28;97516;-64
2022/03/04 02:19:59;;;;;;;;;28.00;26.33;;;;;8.09;37.02;98815.03;6228015;28;97711;-64
2022/03/04 02:23:03;;;;;;;;;32.25;27.25;;;;;8.05;37.37;98816.47;6213070;28;96302;-63
2022/03/04 02:26:07;;;;;;;;;26.40;23.00;;;;;8.05;37.09;98824.53;6236151;27;97355;-64
2022/03/04 02:29:10;;;;;;;;;31.00;25.00;;;;;8.05;37.21;98823.72;6262712;27;97057;-64
2022/03/04 02:32:13;;;;;;;;;31.40;25.80;;;;;8.06;37.28;98830.75;6243425;27;98361;-64
2022/03/04 02:35:16;;;;;;;;;34.25;28.00;;;;;8.10;37.21;98821.22;6245275;27;97240;-64
2022/03/04 02:38:21;;;;;;;;;31.25;26.00;;;;;8.03;37.22;98804.28;6237695;28;97408;-64
2022/03/04 02:41:24;;;;;;;;;30.80;26.20;;;;;8.07;37.13;98814.41;6237329;28;96472;-64
2022/03/04 02:44:28;;;;;;;;;30.80;26.60;;;;;8.01;37.40;98809.88;6237891;28;96952;-64
2022/03/04 02:47:31;;;;;;;;;37.40;30.80;;;;;7.92;37.71;98815.63;6236553;28;97292;-64
2022/03/04 02:50:34;;;;;;;;;31.75;29.50;;;;;7.85;37.84;98815.66;6235713;27;97352;-63
2022/03/04 02:53:39;;;;;;;;;33.00;28.40;;;;;7.81;38.24;98822.47;6237858;28;96495;-64
2022/03/04 02:56:42;;;;;;;;;35.00;30.00;;;;;7.81;38.01;98819.78;6235312;28;97464;-65
2022/03/04 02:59:45;;;;;;;;;37.40;30.00;;;;;7.82;37.87;98822.25;6236890;28;97465;-63
2022/03/04 03:02:49;;;;;;;;;31.40;29.00;;;;;7.83;38.05;98829.28;6234932;28;97746;-63
2022/03/04 03:05:52;;;;;;;;;34.00;30.00;;;;;7.88;37.94;98834.03;6237191;28;96969;-63
2022/03/04 03:08:57;;;;;;;;;30.60;25.60;;;;;7.85;37.99;98826.38;6218699;28;96664;-63
2022/03/04 03:12:00;;;;;;;;;38.40;30.00;;;;;7.97;37.87;98840.00;6237354;28;97995;-64
2022/03/04 03:15:04;;;;;;;;;28.75;26.50;;;;;8.01;37.62;98841.28;6236775;28;96583;-64
2022/03/04 03:18:07;;;;;;;;;26.40;22.00;;;;;8.06;37.54;98842.28;6233154;28;97242;-64
2022/03/04 03:21:11;;;;;;;;;28.00;23.67;;;;;8.08;37.24;98842.09;6237327;28;96817;-65
2022/03/04 03:24:16;;;;;;;;;28.80;23.20;;;;;8.08;37.21;98842.09;6234993;28;96703;-65
2022/03/04 03:27:19;;;;;;;;;28.40;25.00;;;;;8.06;37.20;98839.59;6236018;28;96765;-65
2022/03/04 03:30:23;;;;;;;;;32.00;26.75;;;;;8.05;37.20;98839.81;6201187;28;96611;-64
2022/03/04 03:33:26;;;;;;;;;26.00;23.20;;;;;7.97;37.02;98829.25;6236736;28;98082;-64
2022/03/04 03:36:29;;;;;;;;;31.25;24.25;;;;;8.09;37.14;98849.09;6236728;28;97358;-64
2022/03/04 03:39:34;;;;;;;;;29.60;26.00;;;;;8.13;37.04;98843.13;6231512;28;97873;-62
2022/03/04 03:42:37;;;;;;;;;26.80;24.20;;;;;8.02;37.01;98827.63;6231859;28;98975;-64
2022/03/04 03:45:40;;;;;;;;;30.00;23.00;;;;;8.15;37.02;98843.75;6233153;28;96465;-64
2022/03/04 03:48:44;;;;;;;;;24.00;20.60;;;;;8.16;37.05;98853.44;6214847;28;98617;-63
2022/03/04 03:51:47;;;;;;;;;27.00;25.00;;;;;8.17;37.11;98846.22;6231928;28;97022;-63
2022/03/04 03:54:52;;;;;;;;;26.40;22.00;;;;;8.15;37.06;98859.03;6236003;28;97528;-64
2022/03/04 03:57:55;;;;;;;;;29.00;24.00;;;;;8.07;37.29;98856.53;6236149;28;97011;-63
2022/03/04 04:01:00;;;;;;;;;23.00;22.00;;;;;8.03;37.18;98841.88;6217791;27;97735;-64
2022/03/04 04:04:03;;;;;;;;;25.50;22.50;;;;;8.01;37.27;98844.78;6238777;28;97003;-63
2022/03/04 04:07:08;;;;;;;;;27.60;21.00;;;;;8.03;37.33;98845.38;6240293;28;97445;-63
2022/03/04 04:10:13;;;;;;;;;25.60;22.40;;;;;7.92;37.46;98847.84;6240914;28;97416;-63
2022/03/04 04:13:16;;;;;;;;;25.00;22.20;;;;;7.98;37.41;98857.78;6240456;28;97042;-63
2022/03/04 04:16:19;;;;;;;;;26.60;23.00;;;;;7.95;37.42;98850.13;6240395;28;96382;-63
2022/03/04 04:19:23;;;;;;;;;28.50;24.00;;;;;7.95;37.51;98852.81;6240087;28;97489;-64
2022/03/04 04:22:26;;;;;;;;;23.75;20.75;;;;;7.97;37.34;98858.78;6240396;28;96482;-63
2022/03/04 04:25:31;;;;;;;;;27.80;23.00;;;;;7.96;37.70;98858.00;6239860;28;97032;-63
2022/03/04 04:28:34;;;;;;;;;30.00;23.00;;;;;7.95;37.58;98858.19;6240217;28;96841;-63
2022/03/04 04:31:42;;;;;;;;;25.60;22.40;;;;;7.98;37.60;98857.78;6239853;28;98021;-63
2022/03/04 04:34:45;;;;;;;;;28.20;24.00;;;;;7.90;37.70;98864.19;6240031;28;97360;-63
2022/03/04 04:37:48;;;;;;;;;23.80;21.80;;;;;7.91;37.68;98865.84;6239940;28;97435;-64
2022/03/04 04:40:53;;;;;;;;;25.00;23.00;;;;;7.94;37.88;98861.91;6238522;28;97457;-63
2022/03/04 04:43:56;;;;;;;;;29.20;26.00;;;;;7.93;37.90;98861.06;6239752;28;96315;-64
2022/03/04 04:46:59;;;;;;;;;28.00;25.25;;;;;7.96;37.79;98863.38;6239982;28;96374;-63
2022/03/04 04:50:04;;;;;;;;;31.40;25.40;;;;;7.95;38.09;98858.19;6239649;28;96359;-63
2022/03/04 04:53:07;;;;;;;;;26.40;24.00;;;;;7.94;38.11;98857.38;6239608;28;96391;-63
2022/03/04 04:56:12;;;;;;;;;29.60;25.00;;;;;8.00;37.98;98859.22;6239976;28;97325;-63
2022/03/04 04:59:15;;;;;;;;;31.25;27.00;;;;;7.95;38.16;98860.88;6239795;28;96478;-63
2022/03/04 05:02:19;;;;;;;;;29.20;24.80;;;;;7.93;38.09;98863.75;6239326;28;96520;-63
2022/03/04 05:05:22;;;;;;;;;29.40;26.40;;;;;7.94;38.29;98864.59;6239426;28;97453;-64
2022/03/04 05:08:27;;;;;;;;;27.75;24.75;;;;;7.97;38.15;98878.41;6237860;28;97872;-63
2022/03/04 05:11:32;;;;;;;;;32.25;27.25;;;;;8.04;38.10;98873.91;6239375;28;97519;-63
2022/03/04 05:14:36;;;;;;;;;31.20;24.60;;;;;8.04;38.08;98881.13;6238248;28;96452;-64
2022/03/04 05:17:39;;;;;;;;;30.40;25.80;;;;;8.03;37.99;98876.78;6237100;28;98308;-63
2022/03/04 05:20:43;;;;;;;;;27.20;24.20;;;;;8.00;38.31;98880.72;6239175;28;98105;-64
2022/03/04 05:24:02;;;;;;;;;25.60;23.60;;;;;8.02;38.35;98885.84;6239008;28;96989;-63
2022/03/04 05:27:07;;;;;;;;;28.80;26.80;;;;;8.01;38.30;98889.59;6268868;27;96572;-64
2022/03/04 05:30:11;;;;;;;;;31.80;23.40;;;;;7.96;38.35;98887.53;6245286;27;100253;-64
2022/03/04 05:33:14;;;;;;;;;25.60;23.60;;;;;8.06;38.55;98889.81;6245425;27;97068;-64
2022/03/04 05:36:20;;;;;;;;;28.40;25.40;;;;;8.14;38.55;98887.75;6264111;27;97416;-64
2022/03/04 05:39:24;;;;;;;;;27.00;24.75;;;;;8.15;38.51;98896.63;6266552;27;96622;-63
2022/03/04 05:42:28;;;;;;;;;31.20;26.80;;;;;8.17;38.61;98897.22;6254722;27;96471;-64
2022/03/04 05:45:31;;;;;;;;;29.40;26.40;;;;;8.22;38.72;98894.75;6271752;27;96873;-63
2022/03/04 05:48:35;;;;;;;;;27.80;24.20;;;;;8.15;38.93;98899.31;6269005;27;97461;-63
2022/03/04 05:51:39;;;;;;;;;30.20;26.00;;;;;8.19;39.20;98897.88;6257702;27;99542;-63
2022/03/04 05:54:42;;;;;;;;;30.00;28.00;;;;;8.12;39.23;98899.69;6267676;27;96515;-64
2022/03/04 05:57:48;;;;;;;;;29.80;26.40;;;;;8.11;39.30;98890.81;6268411;27;96438;-63
2022/03/04 06:00:51;;;;;;;;;29.80;25.80;;;;;8.13;39.58;98907.56;6257430;27;97745;-64
2022/03/04 06:03:55;;;;;;;;;28.00;25.60;;;;;8.14;39.67;98909.22;6260572;27;97452;-63
2022/03/04 06:06:59;;;;;;;;;28.00;24.00;;;;;8.12;39.89;98913.13;6270532;27;97338;-63
2022/03/04 06:10:02;;;;;;;;;28.00;25.75;;;;;8.16;40.06;98920.56;6261276;27;97383;-63
2022/03/04 06:13:07;;;;;;;;;30.60;25.00;;;;;8.22;39.90;98922.44;6263393;27;96549;-62
2022/03/04 06:16:10;;;;;;;;;31.25;28.25;;;;;8.26;39.94;98925.53;6263490;27;96672;-62
2022/03/04 06:19:13;;;;;;;;;29.00;26.00;;;;;8.28;40.09;98932.38;6263162;27;97001;-63
2022/03/04 06:22:18;;;;;;;;;28.60;25.60;;;;;8.27;40.06;98919.13;6262885;27;96621;-61
2022/03/04 06:25:21;;;;;;;;;31.80;27.60;;;;;8.23;40.26;98920.59;6281200;27;97329;-62
2022/03/04 06:28:27;;;;;;;;;33.00;26.00;;;;;8.38;40.29;98931.16;6265450;27;97123;-64
2022/03/04 06:31:32;;;;;;;;;29.25;26.00;;;;;8.39;40.24;98932.81;6263287;27;96669;-62
2022/03/04 06:34:37;;;;;;;;;28.80;25.20;;;;;8.43;40.28;98952.84;6278089;27;97358;-60
2022/03/04 06:37:40;;;;;;;;;30.00;27.00;;;;;8.44;40.27;98939.22;6270509;27;96785;-62
2022/03/04 06:40:43;;;;;;;;;32.00;27.00;;;;;8.40;40.22;98951.44;6288314;27;97470;-61
2022/03/04 06:43:49;;;;;;;;;28.40;22.60;;;;;8.26;40.63;98947.00;6270053;27;96893;-61
2022/03/04 06:46:52;;;;;;;;;27.00;24.00;;;;;8.21;40.80;98947.63;6288788;27;97393;-64
2022/03/04 06:49:55;;;;;;;;;30.75;26.25;;;;;8.25;40.95;98951.59;6288010;27;96447;-61
2022/03/04 06:52:59;;;;;;;;;28.80;24.20;;;;;8.30;41.14;98951.00;6287878;27;97493;-63
2022/03/04 06:56:02;;;;;;;;;31.40;26.00;;;;;8.31;41.38;98960.69;6287847;27;96380;-62
2022/03/04 06:59:06;;;;;;;;;31.00;27.50;;;;;8.41;41.28;98960.28;6287889;27;97838;-63
2022/03/04 07:02:12;;;;;;;;;32.80;28.00;;;;;8.41;41.07;98958.44;6267962;27;97086;-62
2022/03/04 07:05:15;;;;;;;;;30.60;27.60;;;;;8.43;41.68;98958.22;6244708;27;97392;-61
2022/03/04 07:08:19;;;;;;;;;31.20;28.60;;;;;8.40;41.97;98966.72;6258931;27;97395;-61
2022/03/04 07:11:24;;;;;;;;;30.60;27.40;;;;;8.42;41.94;98956.56;6261852;27;96900;-62
2022/03/04 07:14:28;;;;;;;;;34.00;27.40;;;;;8.38;42.00;98961.53;6261243;27;97515;-64
2022/03/04 07:17:32;;;;;;;;;32.60;27.00;;;;;8.34;42.20;98954.94;6260698;27;96615;-62
2022/03/04 07:20:35;;;;;;;;;34.40;29.40;;;;;8.16;42.17;98928.63;6262167;27;96780;-62
2022/03/04 07:23:38;;;;;;;;;31.00;27.40;;;;;8.43;42.22;98960.91;6262023;27;97471;-62
2022/03/04 07:26:42;;;;;;;;;30.20;27.80;;;;;8.26;42.30;98925.53;6261384;27;96552;-61
2022/03/04 07:29:47;;;;;;;;;32.60;28.40;;;;;8.44;42.52;98962.56;6261430;27;96432;-61
2022/03/04 07:32:50;;;;;;;;;35.60;29.20;;;;;8.45;42.27;98967.75;6261718;27;96526;-63
2022/03/04 07:35:53;;;;;;;;;35.40;29.40;;;;;8.47;42.58;98970.22;6258304;27;96669;-62
2022/03/04 07:38:57;;;;;;;;;34.60;30.00;;;;;8.45;42.68;98970.44;6260297;27;96400;-65
2022/03/04 07:42:01;;;;;;;;;35.60;30.00;;;;;8.46;42.73;98974.75;6260247;27;96557;-63
2022/03/04 07:45:10;;;;;;;;;36.67;30.00;;;;;8.47;43.02;98978.28;6260423;27;97519;-63
2022/03/04 07:48:14;;;;;;;;;29.60;27.20;;;;;8.53;42.91;98975.59;6261474;27;96856;-63
2022/03/04 07:51:17;;;;;;;;;34.00;27.00;;;;;8.56;42.88;98971.66;6260041;27;96431;-62
2022/03/04 07:54:20;;;;;;;;;32.00;28.80;;;;;8.67;42.95;98976.41;6258493;27;97970;-62
2022/03/04 07:57:23;;;;;;;;;33.00;27.75;;;;;8.73;42.61;98972.91;6257732;27;98353;-64
2022/03/04 08:00:28;;;;;;;;;37.00;30.00;;;;;8.83;42.72;98981.38;6261018;27;97278;-63
2022/03/04 08:03:32;;;;;;;;;37.00;31.00;;;;;8.93;42.60;98979.09;6260897;27;96535;-63
2022/03/04 08:06:35;;;;;;;;;37.00;31.00;;;;;9.01;42.71;98983.41;6251868;27;99458;-63
2022/03/04 08:09:38;;;;;;;;;34.00;30.00;;;;;9.11;42.79;98990.03;6274046;27;96456;-63
2022/03/04 08:12:41;;;;;;;;;37.60;30.60;;;;;9.20;42.56;98989.78;6286231;27;97415;-62
2022/03/04 08:15:46;;;;;;;;;34.80;30.00;;;;;9.19;42.40;98990.84;6278536;27;96394;-63
2022/03/04 08:18:50;;;;;;;;;42.00;32.40;;;;;9.18;42.43;98989.19;6261140;27;97023;-62
2022/03/04 08:21:53;;;;;;;;;36.67;30.67;;;;;9.18;42.37;99002.66;6261115;27;96999;-61
2022/03/04 08:25:16;;;;;;;;;39.20;32.20;;;;;9.19;42.16;98998.94;6260456;27;96652;-63
2022/03/04 08:28:19;;;;;;;;;37.80;31.80;;;;;9.10;42.33;98993.75;6261479;27;96989;-60
2022/03/04 08:31:24;;;;;;;;;38.40;32.00;;;;;9.09;42.61;98992.09;6260703;27;97320;-61
2022/03/04 08:34:27;;;;;;;;;41.75;32.75;;;;;9.11;42.79;98995.41;6261238;27;98051;-61
2022/03/04 08:37:31;;;;;;;;;42.40;30.20;;;;;9.16;42.76;99000.16;6260704;27;96993;-64
2022/03/04 08:40:34;;;;;;;;;42.60;31.60;;;;;9.21;42.68;98997.66;6225683;27;98259;-64
2022/03/04 08:43:39;;;;;;;;;43.20;32.40;;;;;9.25;42.79;99004.28;6260678;27;96519;-62
2022/03/04 08:46:44;;;;;;;;;35.80;31.60;;;;;9.33;42.51;99001.38;6260559;27;97378;-61
2022/03/04 08:49:47;;;;;;;;;41.00;32.60;;;;;9.42;42.47;99004.66;6263951;27;96643;-62
2022/03/04 08:52:51;;;;;;;;;40.40;33.00;;;;;9.47;42.34;99000.28;6265141;27;96930;-61
2022/03/04 08:55:55;;;;;;;;;38.25;31.25;;;;;9.49;42.45;99000.91;6264657;27;97313;-62
2022/03/04 08:58:58;;;;;;;;;41.20;32.00;;;;;9.57;41.78;99003.38;6264550;27;97111;-63
2022/03/04 09:02:03;;;;;;;;;37.80;31.40;;;;;9.67;41.48;99002.09;6263519;27;97486;-62
2022/03/04 09:05:07;;;;;;;;;36.40;29.80;;;;;9.71;41.93;99006.00;6264696;27;96773;-61
2022/03/04 09:08:10;;;;;;;;;31.00;27.00;;;;;9.80;41.28;99010.09;6271748;27;97499;-63
2022/03/04 09:11:14;;;;;;;;;33.00;27.00;;;;;9.86;40.70;99015.47;6271856;27;96847;-59
2022/03/04 09:14:19;;;;;;;;;36.80;30.80;;;;;9.92;40.57;99006.50;6285729;27;97181;-62
2022/03/04 09:17:24;;;;;;;;;32.00;27.25;;;;;9.97;41.12;99016.63;6263814;27;98027;-62
2022/03/04 09:20:27;;;;;;;;;36.00;30.00;;;;;10.00;41.03;99029.69;6264118;27;96794;-62
2022/03/04 09:23:30;;;;;;;;;35.20;30.00;;;;;10.12;40.69;99024.44;6245887;27;97552;-61
2022/03/04 09:26:34;;;;;;;;;38.20;31.80;;;;;10.15;41.14;99027.56;6263601;27;97856;-61
2022/03/04 09:29:37;;;;;;;;;36.75;30.00;;;;;10.20;41.08;99026.94;6263574;27;96607;-60
2022/03/04 09:32:42;;;;;;;;;39.60;32.00;;;;;10.21;41.11;99029.44;6264517;27;97016;-62
2022/03/04 09:35:45;;;;;;;;;39.00;31.00;;;;;10.19;40.77;99023.41;6244120;27;99493;-62
2022/03/04 09:38:48;;;;;;;;;39.40;32.00;;;;;10.24;41.07;99037.06;6263729;27;96465;-63
2022/03/04 09:41:52;;;;;;;;;34.40;29.00;;;;;10.35;40.78;99035.56;6263947;27;97004;-62
2022/03/04 09:44:55;;;;;;;;;34.00;29.00;;;;;10.51;40.03;99028.78;6245016;27;98849;-61
2022/03/04 09:48:02;;;;;;;;;34.00;30.00;;;;;10.79;39.50;99030.06;6263011;27;98226;-63
2022/03/04 09:51:08;;;;;;;;;34.20;30.00;;;;;11.06;39.11;99030.66;6263905;27;96468;-63
2022/03/04 09:54:12;;;;;;;;;31.00;26.50;;;;;11.35;39.11;99028.31;6264025;27;97433;-63
2022/03/04 09:57:15;;;;;;;;;34.60;28.60;;;;;11.45;38.38;99037.53;6263487;27;98214;-60
2022/03/04 10:00:18;;;;;;;;;29.00;25.00;;;;;11.50;37.39;99028.78;6263514;27;98024;-62
2022/03/04 10:03:44;;;;;;;;;33.00;30.00;;;;;11.42;37.39;99027.19;6262622;27;96489;-62
2022/03/04 10:06:49;;;;;;;;;32.00;28.40;;;;;11.32;37.52;99028.75;6264017;27;97303;-63
2022/03/04 10:09:52;;;;;;;;;28.40;24.40;;;;;11.24;37.91;99035.25;6263428;27;97234;-62
2022/03/04 10:12:58;;;;;;;;;32.00;27.00;;;;;11.14;37.82;99032.25;6263772;27;97479;-61
2022/03/04 10:16:01;;;;;;;;;26.80;23.00;;;;;11.00;37.46;99031.53;6244835;27;96833;-61
2022/03/04 10:19:14;;;;;;;;;26.00;23.00;;;;;10.95;38.09;99031.38;6263591;27;97597;-61
2022/03/04 10:22:18;;;;;;;;;28.80;26.40;;;;;10.96;38.73;99038.41;6264082;27;96414;-61
2022/03/04 10:25:23;;;;;;;;;29.00;28.00;;;;;10.94;38.12;99034.31;6263205;27;97509;-62
2022/03/04 10:28:29;;;;;;;;;33.40;27.40;;;;;10.89;38.28;99029.56;6263511;27;96499;-62
2022/03/04 10:31:33;;;;;;;;;26.50;23.00;;;;;10.82;37.46;99024.22;6264188;27;97817;-62
2022/03/04 10:34:59;;;;;;;;;26.00;24.00;;;;;10.75;38.12;99023.44;6253731;27;97157;-63
2022/03/04 10:38:04;;;;;;;;;26.50;21.25;;;;;10.90;37.21;99022.31;6260789;27;99628;-62
2022/03/04 10:41:29;;;;;;;;;28.25;26.00;;;;;10.98;37.10;99020.16;6262475;27;96863;-63
2022/03/04 10:44:34;;;;;;;;;23.60;21.60;;;;;11.00;37.13;99022.59;6262682;27;97420;-63
2022/03/04 10:47:47;;;;;;;;;22.00;17.75;;;;;11.09;35.63;99026.69;6263365;27;97541;-61
2022/03/04 10:50:53;;;;;;;;;22.00;20.00;;;;;11.13;35.27;99009.84;6263063;27;96512;-62
2022/03/04 10:54:13;;;;;;;;;21.50;18.00;;;;;11.38;35.25;99025.19;6270234;27;96581;-62
2022/03/04 10:57:19;;;;;;;;;22.80;19.20;;;;;11.39;34.62;99022.22;6261753;27;97391;-61
2022/03/04 11:00:28;;;;;;;;;21.50;18.00;;;;;11.39;33.62;99024.09;6261115;27;97445;-62
2022/03/04 11:03:33;;;;;;;;;25.00;20.00;;;;;11.36;34.67;99027.25;6264175;27;97110;-64
2022/03/04 11:06:38;;;;;;;;;25.00;22.00;;;;;11.34;34.46;99018.56;6262025;27;97403;-64
2022/03/04 11:09:42;;;;;;;;;26.00;22.00;;;;;11.45;34.79;99021.34;6262412;27;97113;-65
2022/03/04 11:12:46;;;;;;;;;19.00;18.00;;;;;11.56;34.28;99015.22;6259504;27;96494;-68
2022/03/04 11:15:51;;;;;;;;;21.75;19.75;;;;;11.62;34.19;99008.09;6259212;27;96652;-65
2022/03/04 11:18:55;;;;;;;;;18.40;16.20;;;;;11.84;33.00;99021.97;6259545;27;99650;-63
2022/03/04 11:22:00;;;;;;;;;18.50;17.00;;;;;11.99;32.25;99017.00;6261582;27;96510;-62
2022/03/04 11:25:05;;;;;;;;;22.40;17.40;;;;;12.17;32.53;99005.34;6241349;27;98364;-65
2022/03/04 11:28:14;;;;;;;;;18.00;15.40;;;;;12.46;31.70;98996.41;6239714;27;98598;-65
2022/03/04 11:31:20;;;;;;;;;15.60;15.00;;;;;12.72;31.51;98995.97;6253363;27;96615;-65
2022/03/04 11:34:34;;;;;;;;;21.00;17.00;;;;;13.07;31.69;98997.88;6261075;27;97773;-64
2022/03/04 11:37:50;;;;;;;;;23.00;20.00;;;;;13.16;31.63;98999.22;6242544;27;98330;-64
2022/03/04 11:40:54;;;;;;;;;22.00;19.60;;;;;13.12;31.28;99011.56;6284914;27;98362;-66
2022/03/04 11:44:19;;;;;;;;;19.20;19.00;;;;;12.96;31.00;98997.66;6257568;27;96572;-66
2022/03/04 11:47:22;;;;;;;;;20.00;18.00;;;;;12.82;31.13;98985.41;6259204;27;98544;-65
2022/03/04 11:50:28;;;;;;;;;24.00;18.40;;;;;12.87;31.33;98995.53;6260636;27;96681;-64
2022/03/04 11:53:32;;;;;;;;;28.00;24.60;;;;;12.82;31.48;98996.22;6260518;27;97472;-62
2022/03/04 11:56:51;;;;;;;;;23.00;20.20;;;;;12.82;31.02;98987.28;6255411;27;97103;-65
2022/03/04 11:59:57;;;;;;;;;19.00;17.00;;;;;12.81;31.11;98991.03;6258610;27;97113;-63
2022/03/04 12:03:10;;;;;;;;;21.60;17.00;;;;;12.81;30.53;98989.16;6260493;27;97369;-62
2022/03/04 12:06:24;;;;;;;;;19.00;16.00;;;;;12.73;30.96;98985.97;6259256;27;97281;-62
2022/03/04 12:09:32;;;;;;;;;19.40;18.00;;;;;12.55;30.75;98973.38;6264490;27;96562;-62
2022/03/04 12:12:35;;;;;;;;;24.00;19.20;;;;;12.41;31.14;98991.66;6258891;27;96556;-63
2022/03/04 12:15:40;;;;;;;;;23.25;20.50;;;;;12.35;31.50;98994.47;6259640;27;97322;-64
2022/03/04 12:18:48;;;;;;;;;18.80;17.00;;;;;12.39;31.27;98987.56;6247891;27;97029;-64
2022/03/04 12:21:57;;;;;;;;;20.00;16.60;;;;;12.36;31.49;98994.25;6252652;27;96837;-64
2022/03/04 12:25:02;;;;;;;;;20.50;18.00;;;;;12.32;32.09;98989.50;6264928;27;96656;-64
2022/03/04 12:28:14;;;;;;;;;17.00;15.00;;;;;12.37;31.38;98989.66;6266935;27;97380;-64
2022/03/04 12:31:27;;;;;;;;;17.40;15.00;;;;;12.39;31.55;98991.09;6258921;27;96606;-65
2022/03/04 12:34:32;;;;;;;;;20.00;16.00;;;;;12.37;31.18;98995.06;6287958;27;96384;-64
2022/03/04 12:37:40;;;;;;;;;20.50;17.00;;;;;12.36;31.15;98990.72;6279590;27;96657;-63
2022/03/04 12:40:48;;;;;;;;;22.00;17.00;;;;;12.40;31.12;98989.22;6278334;27;97484;-66
2022/03/04 12:43:53;;;;;;;;;16.80;15.80;;;;;12.30;31.58;98989.75;6290522;27;97007;-60
2022/03/04 12:46:57;;;;;;;;;19.00;16.40;;;;;12.05;31.89;98978.28;6290299;27;96481;-62
2022/03/04 12:50:01;;;;;;;;;20.00;16.00;;;;;12.00;32.11;98994.34;6290051;27;97533;-62
2022/03/04 12:53:18;;;;;;;;;17.00;15.00;;;;;11.83;32.56;98988.72;6287226;27;96583;-62
2022/03/04 12:56:23;;;;;;;;;18.00;15.00;;;;;11.76;32.91;98989.88;6278400;27;98100;-64
2022/03/04 12:59:28;;;;;;;;;19.60;16.60;;;;;11.67;32.90;98984.75;6268987;27;96929;-64
2022/03/04 13:02:35;;;;;;;;;20.50;17.50;;;;;11.66;33.02;98993.91;6246846;27;97824;-63
2022/03/04 13:05:46;;;;;;;;;16.20;14.60;;;;;11.59;33.13;98985.03;6237922;27;97890;-63
2022/03/04 13:08:55;;;;;;;;;15.00;13.40;;;;;11.58;33.38;98999.59;6269780;27;96838;-62
2022/03/04 13:12:05;;;;;;;;;12.00;12.00;;;;;11.50;33.41;98993.66;6267727;27;97431;-61
2022/03/04 13:15:10;;;;;;;;;14.25;11.25;;;;;11.38;33.75;98993.63;6250714;27;96607;-65
2022/03/04 13:18:13;;;;;;;;;12.00;10.60;;;;;11.33;34.08;98995.31;6284580;27;96780;-60
2022/03/04 13:21:17;;;;;;;;;15.20;13.80;;;;;11.27;33.97;98989.78;6255036;27;98488;-63
2022/03/04 13:24:26;;;;;;;;;16.00;14.00;;;;;11.15;34.16;98979.91;6245325;27;98523;-61
2022/03/04 13:27:40;;;;;;;;;13.40;12.00;;;;;11.19;34.63;98990.03;6244496;27;97536;-62
2022/03/04 13:30:49;;;;;;;;;19.00;13.20;;;;;11.19;34.66;98991.94;6223130;27;97151;-62
2022/03/04 13:33:58;;;;;;;;;15.00;13.80;;;;;11.09;34.74;98984.34;6259655;27;96538;-63
2022/03/04 13:37:19;;;;;;;;;16.00;14.00;;;;;11.18;34.55;98995.69;6236291;28;96673;-63
2022/03/04 13:40:24;;;;;;;;;16.00;13.00;;;;;11.13;34.72;98995.53;6242500;27;97473;-61
2022/03/04 13:43:32;;;;;;;;;17.00;16.00;;;;;11.10;34.93;98988.69;6247546;27;97136;-64
2022/03/04 13:46:35;;;;;;;;;16.40;15.00;;;;;11.13;34.99;98993.66;6237602;28;96485;-63
2022/03/04 13:49:46;;;;;;;;;17.40;14.00;;;;;11.16;35.05;98995.06;6238784;27;97469;-63
2022/03/04 13:52:59;;;;;;;;;16.00;13.60;;;;;11.14;34.92;98999.88;6237664;27;96524;-61
2022/03/04 13:56:02;;;;;;;;;15.25;12.25;;;;;11.19;34.82;98998.13;6238940;27;96681;-62
2022/03/04 13:59:07;;;;;;;;;15.50;14.00;;;;;10.96;34.72;98962.88;6235859;27;98184;-60
2022/03/04 14:02:13;;;;;;;;;17.00;14.00;;;;;11.22;34.87;98999.59;6253198;27;100029;-61
2022/03/04 14:05:27;;;;;;;;;18.20;15.20;;;;;11.17;34.67;98991.34;6241436;27;98086;-61
2022/03/04 14:08:31;;;;;;;;;14.40;13.40;;;;;11.15;34.51;98996.13;6254649;27;97094;-61
2022/03/04 14:11:34;;;;;;;;;15.75;14.00;;;;;11.11;34.41;98984.13;6259027;27;96888;-60
2022/03/04 14:14:39;;;;;;;;;17.00;14.50;;;;;11.16;34.91;98995.91;6237290;28;96393;-62
2022/03/04 14:17:49;;;;;;;;;23.00;20.80;;;;;11.16;34.74;98997.78;6234161;28;96447;-63